»·PEaware :: KAL214 KSFO-RKSI

KAL214 :: KSFO-RKSI

FLIGHT INFORMATION

Flight Status: Arrived
Operator:
Korean Air
More flights by this operator :: More flights under this callsign
Pilot: Michael F. (26726)
Aircraft: Unknown
(B48F)
More flights by this aircraft type
Origin: KSFO San Francisco Intl
United States
Destination: RKSI Incheon Intl
Republic of Korea
More flights between these airports :: More routes between these airports
Route: GNNRR2 AMAKR REDWD UNVER 42N130W 44N140W 45N150W/N0506F320 45N160W 45N170W 44N180E/N0501F340 42N170E 40N160E KALNA/N0510F360 OTR5 ADNAP Y807 LALID Y804 INUBO Y16 SAPRA G585 GUKDO GUKDO1N
File this flight plan on PilotEdge
Remarks: RMK / SIMBRIEF
Altitude:
(Current/Filed)
30,000ft
Speed:
(Current/Filed)
511kts
Departed: 05-Apr-20 02:20 PM
Arrived: 05-Apr-20 10:13 PM
Distance/Time
Traveled:
4902nm/7:53
Distance/Time
To Go:
Arrived

Flight Plot

Page will automatically refresh every two minutes.


Map Options




Map Legend


Flown Route
Filed Route
Departure Airport
Arrival Airport
Navaid (VOR, NDB)
Fix

Horizontal Profiles

Position Reports

Time Latitude Longitude Heading Altitude Ground
Speed
05-Apr-20 13:53 37.637609 -122.388939 86 26ft 0kts
05-Apr-20 13:54 37.637609 -122.388939 86 26ft 0kts
05-Apr-20 13:55 37.637609 -122.388939 86 26ft 0kts
05-Apr-20 13:56 37.637609 -122.388939 86 26ft 0kts
05-Apr-20 13:57 37.637609 -122.388939 86 26ft 0kts
05-Apr-20 13:58 37.637609 -122.388939 86 26ft 0kts
05-Apr-20 13:59 37.637610 -122.389566 83 26ft 2kts
05-Apr-20 14:00 37.637746 -122.390004 154 26ft 0kts
05-Apr-20 14:01 37.637746 -122.390004 154 26ft 0kts
05-Apr-20 14:02 37.637746 -122.390004 154 26ft 0kts
05-Apr-20 14:03 37.637746 -122.390004 154 26ft 0kts
05-Apr-20 14:04 37.637746 -122.390004 154 26ft 0kts
05-Apr-20 14:05 37.637464 -122.389782 137 26ft 5kts
05-Apr-20 14:06 37.635908 -122.388386 152 26ft 0kts
05-Apr-20 14:07 37.634843 -122.388449 213 26ft 13kts
05-Apr-20 14:08 37.633316 -122.391721 200 26ft 9kts
05-Apr-20 14:09 37.631869 -122.391705 229 26ft 0kts
05-Apr-20 14:09 37.631868 -122.391705 229 26ft 0kts
05-Apr-20 14:10 37.631863 -122.391714 229 26ft 1kts
05-Apr-20 14:12 37.628384 -122.388908 118 26ft 28kts
05-Apr-20 14:12 37.626220 -122.383689 117 26ft 17kts
05-Apr-20 14:13 37.623891 -122.378160 118 26ft 20kts
05-Apr-20 14:14 37.621350 -122.372111 117 26ft 18kts
05-Apr-20 14:16 37.618245 -122.364688 118 26ft 21kts
05-Apr-20 14:16 37.616009 -122.359216 117 26ft 20kts
05-Apr-20 14:17 37.614894 -122.356878 147 26ft 0kts
05-Apr-20 14:18 37.614096 -122.357981 283 26ft 19kts
05-Apr-20 14:19 37.623929 -122.381810 296 26ft 170kts
05-Apr-20 14:20 37.647804 -122.439893 296 2088ft 184kts
05-Apr-20 14:21 37.676709 -122.506837 296 2642ft 237kts
05-Apr-20 14:22 37.718681 -122.578156 303 4250ft 265kts
05-Apr-20 14:23 37.766688 -122.659216 301 5972ft 299kts
05-Apr-20 14:24 37.817969 -122.745872 307 8283ft 318kts
05-Apr-20 14:25 37.891563 -122.814565 322 10341ft 347kts
05-Apr-20 14:26 37.980936 -122.887747 322 10907ft 417kts
05-Apr-20 14:27 38.081875 -122.971902 322 12897ft 444kts
05-Apr-20 14:28 38.187267 -123.059628 322 15079ft 460kts
05-Apr-20 14:29 38.295753 -123.150570 322 17082ft 475kts
05-Apr-20 14:30 38.407785 -123.244949 322 19033ft 488kts
05-Apr-20 14:31 38.522202 -123.341728 321 20844ft 500kts
05-Apr-20 14:32 38.639476 -123.441316 321 22485ft 513kts
05-Apr-20 14:33 38.759957 -123.543795 321 23981ft 525kts
05-Apr-20 14:34 38.882312 -123.648625 320 25387ft 532kts
05-Apr-20 14:35 38.997549 -123.763421 300 26957ft 512kts
05-Apr-20 14:36 39.065873 -123.920823 288 28353ft 498kts
05-Apr-20 14:37 39.124973 -124.081367 289 29518ft 496kts
05-Apr-20 14:38 39.185243 -124.241232 290 29687ft 497kts
05-Apr-20 14:39 39.245615 -124.402168 290 29681ft 497kts
05-Apr-20 14:40 39.305225 -124.562552 290 29682ft 497kts
05-Apr-20 14:41 39.364899 -124.723987 290 29677ft 497kts
05-Apr-20 14:42 39.424231 -124.885409 290 29675ft 497kts
05-Apr-20 14:43 39.483507 -125.047573 290 29672ft 497kts
05-Apr-20 14:44 39.542302 -125.209305 291 29671ft 498kts
05-Apr-20 14:45 39.601316 -125.372540 291 29670ft 499kts
05-Apr-20 14:46 39.659957 -125.535655 291 29669ft 501kts
05-Apr-20 14:47 39.718799 -125.700249 291 29669ft 502kts
05-Apr-20 14:48 39.777370 -125.865014 291 29668ft 503kts
05-Apr-20 14:49 39.835741 -126.030149 291 29669ft 503kts
05-Apr-20 14:50 39.894396 -126.195916 291 29669ft 503kts
05-Apr-20 14:51 39.952028 -126.361509 291 29669ft 502kts
05-Apr-20 14:52 40.014338 -126.524494 302 29669ft 503kts
05-Apr-20 14:53 40.101223 -126.669113 307 29670ft 507kts
05-Apr-20 14:54 40.188327 -126.813470 306 29671ft 505kts
05-Apr-20 14:55 40.274384 -126.958459 307 29671ft 503kts
05-Apr-20 14:56 40.359811 -127.102596 307 29671ft 501kts
05-Apr-20 14:57 40.444984 -127.247228 307 29673ft 499kts
05-Apr-20 14:58 40.529697 -127.391227 308 29673ft 498kts
05-Apr-20 14:59 40.614557 -127.535028 308 29670ft 497kts
05-Apr-20 15:00 40.698865 -127.679387 308 29665ft 497kts
05-Apr-20 15:01 40.783151 -127.824500 308 29665ft 497kts
05-Apr-20 15:02 40.912410 -128.048477 309 29673ft 497kts
05-Apr-20 15:03 41.079128 -128.339592 309 29656ft 493kts
05-Apr-20 15:04 41.244153 -128.630614 310 29666ft 493kts
05-Apr-20 15:05 41.407694 -128.921706 310 29668ft 490kts
05-Apr-20 15:06 41.569045 -129.211678 310 31416ft 483kts
05-Apr-20 15:07 41.729311 -129.499638 313 31669ft 481kts
05-Apr-20 15:08 41.887272 -129.786706 314 31671ft 478kts
05-Apr-20 15:09 42.033747 -130.086022 303 31681ft 485kts
05-Apr-20 15:10 42.111291 -130.439156 296 31690ft 495kts
05-Apr-20 15:11 42.199368 -130.787477 298 31689ft 487kts
05-Apr-20 15:12 42.281246 -131.135510 297 31695ft 485kts
05-Apr-20 15:13 42.360534 -131.480988 297 31695ft 478kts
05-Apr-20 15:14 42.440625 -131.822830 300 31699ft 475kts
05-Apr-20 15:15 42.522100 -132.162154 300 31698ft 473kts
05-Apr-20 15:16 42.598004 -132.502920 300 31693ft 470kts
05-Apr-20 15:17 42.671953 -132.843219 296 31696ft 467kts
05-Apr-20 15:18 42.745532 -133.180400 297 31698ft 463kts
05-Apr-20 15:19 42.820851 -133.514814 299 31691ft 460kts
05-Apr-20 15:20 42.890450 -133.850830 299 31696ft 460kts
05-Apr-20 15:21 42.960691 -134.184878 299 31696ft 456kts
05-Apr-20 15:22 43.029495 -134.518796 298 31698ft 457kts
05-Apr-20 15:23 43.097948 -134.854302 299 31701ft 458kts
05-Apr-20 15:24 43.166081 -135.189571 298 31784ft 458kts
05-Apr-20 15:25 43.231825 -135.527986 297 31787ft 459kts
05-Apr-20 15:26 43.297090 -135.866606 297 31789ft 459kts
05-Apr-20 15:27 43.361391 -136.206364 296 31794ft 460kts
05-Apr-20 15:28 43.424454 -136.546640 296 31793ft 459kts
05-Apr-20 15:29 43.486703 -136.887663 296 31797ft 459kts
05-Apr-20 15:30 43.547749 -137.228617 295 31800ft 457kts
05-Apr-20 15:31 43.607792 -137.570149 295 31803ft 457kts
05-Apr-20 15:32 43.666432 -137.910859 295 31807ft 456kts
05-Apr-20 15:33 43.724034 -138.251816 295 31810ft 456kts
05-Apr-20 15:34 43.780842 -138.594782 294 31813ft 457kts
05-Apr-20 15:35 43.836438 -138.938022 294 31816ft 456kts
05-Apr-20 15:36 43.890913 -139.282270 293 31819ft 457kts
05-Apr-20 15:37 43.944595 -139.626483 293 31821ft 457kts
05-Apr-20 15:38 43.996418 -139.973355 293 31805ft 457kts
05-Apr-20 15:39 44.048628 -140.320361 290 31804ft 459kts
05-Apr-20 15:40 44.097632 -140.669062 291 31805ft 459kts
05-Apr-20 15:41 44.145552 -141.019333 289 31807ft 462kts
05-Apr-20 15:42 44.192495 -141.371461 288 31807ft 464kts
05-Apr-20 15:43 44.239395 -141.726102 288 31810ft 466kts
05-Apr-20 15:44 44.284806 -142.082019 287 31811ft 466kts
05-Apr-20 15:45 44.329466 -142.438816 287 31812ft 467kts
05-Apr-20 15:46 44.372921 -142.796425 286 31813ft 467kts
05-Apr-20 15:47 44.415289 -143.154712 285 31814ft 467kts
05-Apr-20 15:48 44.457056 -143.514097 286 31814ft 468kts
05-Apr-20 15:49 44.496574 -143.874904 283 31816ft 468kts
05-Apr-20 15:50 44.536668 -144.235708 284 31816ft 470kts
05-Apr-20 15:51 44.574717 -144.598339 281 31819ft 470kts
05-Apr-20 15:52 44.612759 -144.962258 284 31816ft 472kts
05-Apr-20 15:53 44.645853 -145.328799 279 31804ft 474kts
05-Apr-20 15:54 44.680738 -145.696137 279 31781ft 475kts
05-Apr-20 15:55 44.715343 -146.065775 278 31856ft 476kts
05-Apr-20 15:56 44.747418 -146.436091 277 31855ft 477kts
05-Apr-20 15:57 44.778950 -146.806891 277 31853ft 477kts
05-Apr-20 15:58 44.809332 -147.178352 276 31855ft 478kts
05-Apr-20 15:59 44.838629 -147.551652 276 31911ft 479kts
05-Apr-20 16:00 44.866668 -147.925011 276 31925ft 479kts
05-Apr-20 16:02 44.893490 -148.298577 275 31929ft 480kts
05-Apr-20 16:03 44.919169 -148.673633 275 31932ft 480kts
05-Apr-20 16:04 44.943597 -149.048649 274 31935ft 480kts
05-Apr-20 16:05 44.966895 -149.425561 274 31929ft 481kts
05-Apr-20 16:06 44.989182 -149.801790 273 31932ft 480kts
05-Apr-20 16:07 45.007677 -150.178235 272 31935ft 480kts
05-Apr-20 16:08 45.021911 -150.555266 273 31937ft 481kts
05-Apr-20 16:09 45.036960 -150.933737 272 31940ft 481kts
05-Apr-20 16:10 45.049758 -151.311157 272 31941ft 481kts
05-Apr-20 16:11 45.061297 -151.688209 272 31980ft 481kts
05-Apr-20 16:12 45.071606 -152.067026 273 32008ft 481kts
05-Apr-20 16:13 45.080683 -152.444356 272 32010ft 480kts
05-Apr-20 16:14 45.088486 -152.822885 272 32029ft 480kts
05-Apr-20 16:15 45.095047 -153.200991 272 32032ft 480kts
05-Apr-20 16:16 45.100351 -153.578309 272 32032ft 479kts
05-Apr-20 16:17 45.104413 -153.955821 272 32033ft 479kts
05-Apr-20 16:18 45.107234 -154.333462 271 32078ft 479kts
05-Apr-20 16:18 45.108628 -154.647270 271 32167ft 480kts
05-Apr-20 16:20 45.109147 -155.088326 270 32177ft 479kts
05-Apr-20 16:21 45.108227 -155.464863 269 32217ft 479kts
05-Apr-20 16:21 45.106520 -155.779328 269 32239ft 479kts
05-Apr-20 16:22 45.103351 -156.156803 268 32242ft 478kts
05-Apr-20 16:24 45.098041 -156.596970 268 32223ft 479kts
05-Apr-20 16:24 45.093242 -156.910420 267 32217ft 480kts
05-Apr-20 16:25 45.086311 -157.288580 267 32217ft 480kts
05-Apr-20 16:27 45.076670 -157.728723 266 32218ft 480kts
05-Apr-20 16:27 45.068720 -158.044254 266 32212ft 480kts
05-Apr-20 16:28 45.058068 -158.421648 265 32232ft 481kts
05-Apr-20 16:29 45.046125 -158.799972 265 32266ft 482kts
05-Apr-20 16:30 45.032931 -159.179225 265 32278ft 482kts
05-Apr-20 16:31 45.018495 -159.557514 265 32278ft 483kts
05-Apr-20 16:32 45.002763 -159.937259 264 32291ft 483kts
05-Apr-20 16:33 45.012067 -160.318407 271 32306ft 488kts
05-Apr-20 16:34 45.028237 -160.699824 270 32932ft 485kts
05-Apr-20 16:35 45.042103 -161.079941 269 34271ft 480kts
05-Apr-20 16:36 45.054414 -161.458460 268 34311ft 482kts
05-Apr-20 16:37 45.065510 -161.837389 268 34339ft 482kts
05-Apr-20 16:38 45.075374 -162.216938 267 34365ft 484kts
05-Apr-20 16:39 45.084026 -162.599498 267 34374ft 485kts
05-Apr-20 16:40 45.091395 -162.981727 266 34375ft 487kts
05-Apr-20 16:41 45.097519 -163.365651 266 34376ft 488kts
05-Apr-20 16:42 45.102359 -163.750417 265 34377ft 489kts
05-Apr-20 16:43 45.105907 -164.135142 265 34377ft 489kts
05-Apr-20 16:44 45.108170 -164.521629 265 34381ft 491kts
05-Apr-20 16:45 45.109132 -164.908085 265 34382ft 491kts
05-Apr-20 16:46 45.108788 -165.294630 264 34383ft 492kts
05-Apr-20 16:47 45.107136 -165.682075 264 34381ft 491kts
05-Apr-20 16:48 45.104172 -166.069075 264 34384ft 491kts
05-Apr-20 16:49 45.099897 -166.455605 264 34386ft 492kts
05-Apr-20 16:50 45.094324 -166.844354 263 34460ft 494kts
05-Apr-20 16:51 45.087427 -167.231793 263 34473ft 494kts
05-Apr-20 16:52 45.079184 -167.621015 263 34475ft 494kts
05-Apr-20 16:53 45.069609 -168.010054 262 34477ft 494kts
05-Apr-20 16:54 45.058753 -168.397914 262 34478ft 495kts
05-Apr-20 16:55 45.046543 -168.786835 262 34480ft 495kts
05-Apr-20 16:56 45.033005 -169.176429 261 34481ft 495kts
05-Apr-20 16:57 45.018224 -169.564932 262 34482ft 495kts
05-Apr-20 16:58 45.002076 -169.952870 261 34483ft 495kts
05-Apr-20 16:59 44.980109 -170.338589 260 34484ft 493kts
05-Apr-20 17:00 44.957601 -170.724458 260 34485ft 492kts
05-Apr-20 17:01 44.933458 -171.109715 259 34486ft 491kts
05-Apr-20 17:02 44.907835 -171.493618 259 34487ft 491kts
05-Apr-20 17:03 44.881065 -171.876119 259 34488ft 491kts
05-Apr-20 17:04 44.852924 -172.259201 259 34481ft 488kts
05-Apr-20 17:05 44.823819 -172.638534 258 34480ft 487kts
05-Apr-20 17:06 44.793471 -173.017011 258 34480ft 485kts
05-Apr-20 17:07 44.762063 -173.392842 258 34480ft 483kts
05-Apr-20 17:08 44.729306 -173.769630 258 34481ft 484kts
05-Apr-20 17:09 44.695404 -174.145020 258 34481ft 482kts
05-Apr-20 17:10 44.660572 -174.516622 257 34502ft 479kts
05-Apr-20 17:11 44.624722 -174.886148 257 34502ft 475kts
05-Apr-20 17:12 44.587935 -175.252265 257 34502ft 471kts
05-Apr-20 17:13 44.550446 -175.614142 256 34502ft 469kts
05-Apr-20 17:14 44.511627 -175.976055 260 34502ft 470kts
05-Apr-20 17:15 44.471855 -176.337691 260 34506ft 468kts
05-Apr-20 17:16 44.431083 -176.696648 261 34505ft 466kts
05-Apr-20 17:17 44.389317 -177.054009 261 34496ft 465kts
05-Apr-20 17:18 44.346554 -177.409915 262 34496ft 465kts
05-Apr-20 17:19 44.302591 -177.766139 263 34496ft 466kts
05-Apr-20 17:20 44.257322 -178.123363 263 34496ft 466kts
05-Apr-20 17:21 44.211196 -178.478095 262 34496ft 465kts
05-Apr-20 17:22 44.164081 -178.831476 262 34495ft 461kts
05-Apr-20 17:23 44.116328 -179.181046 261 34495ft 458kts
05-Apr-20 17:24 44.067731 -179.528503 261 34495ft 457kts
05-Apr-20 17:25 44.018193 -179.875629 261 34495ft 458kts
05-Apr-20 17:26 43.978204 179.856909 260 34414ft 459kts
05-Apr-20 17:27 43.923953 179.511564 260 34358ft 457kts
05-Apr-20 17:28 43.871160 179.168244 260 34355ft 453kts
05-Apr-20 17:29 43.816729 178.828706 260 34350ft 449kts
05-Apr-20 17:30 43.761734 178.492578 260 34350ft 446kts
05-Apr-20 17:31 43.705968 178.158332 260 34349ft 445kts
05-Apr-20 17:32 43.649434 177.825894 259 34348ft 443kts
05-Apr-20 17:33 43.592191 177.495530 259 34334ft 440kts
05-Apr-20 17:34 43.534475 177.168520 260 34304ft 436kts
05-Apr-20 17:35 43.476519 176.845865 259 34303ft 431kts
05-Apr-20 17:36 43.418410 176.528000 259 34303ft 428kts
05-Apr-20 17:37 43.359580 176.211548 259 34303ft 426kts
05-Apr-20 17:38 43.300072 175.896490 259 34301ft 423kts
05-Apr-20 17:39 43.240402 175.586143 259 34302ft 420kts
05-Apr-20 17:40 43.179910 175.276258 258 34301ft 419kts
05-Apr-20 17:41 43.118859 174.968350 258 34301ft 419kts
05-Apr-20 17:42 43.056999 174.661162 258 34300ft 417kts
05-Apr-20 17:43 42.994666 174.356273 257 34299ft 416kts
05-Apr-20 17:44 42.931850 174.053552 257 34311ft 415kts
05-Apr-20 17:45 42.868075 173.750681 256 34367ft 413kts
05-Apr-20 17:46 42.803732 173.449493 256 34369ft 413kts
05-Apr-20 17:47 42.738821 173.149952 256 34368ft 412kts
05-Apr-20 17:48 42.673247 172.851571 255 34365ft 411kts
05-Apr-20 17:49 42.607241 172.555329 255 34363ft 409kts
05-Apr-20 17:50 42.540576 172.260193 255 34362ft 407kts
05-Apr-20 17:51 42.473550 171.967364 255 34361ft 406kts
05-Apr-20 17:52 42.406001 171.676132 254 34361ft 407kts
05-Apr-20 17:53 42.337280 171.383674 254 34361ft 408kts
05-Apr-20 17:54 42.267639 171.091117 253 34354ft 410kts
05-Apr-20 17:55 42.197009 170.798167 253 34353ft 411kts
05-Apr-20 17:56 42.125388 170.504861 252 34353ft 412kts
05-Apr-20 17:57 42.053422 170.212504 251 34353ft 412kts
05-Apr-20 17:58 41.984570 169.918644 256 34352ft 412kts
05-Apr-20 17:59 41.940057 169.615921 257 34350ft 413kts
05-Apr-20 18:00 41.893354 169.311790 257 34350ft 417kts
05-Apr-20 18:01 41.844603 169.005302 256 34350ft 424kts
05-Apr-20 18:02 41.794101 168.694205 256 34350ft 430kts
05-Apr-20 18:03 41.742028 168.379217 256 34349ft 436kts
05-Apr-20 18:04 41.688575 168.061664 256 34358ft 439kts
05-Apr-20 18:05 41.633919 167.742729 255 34359ft 440kts
05-Apr-20 18:06 41.578244 167.423564 255 34357ft 440kts
05-Apr-20 18:07 41.521911 167.106177 255 34357ft 440kts
05-Apr-20 18:08 41.464441 166.787895 255 34356ft 442kts
05-Apr-20 18:09 41.405726 166.468180 255 34328ft 444kts
05-Apr-20 18:10 41.346296 166.149958 255 35499ft 441kts
05-Apr-20 18:12 41.286237 165.833600 255 36300ft 440kts
05-Apr-20 18:13 41.225669 165.519654 255 36314ft 438kts
05-Apr-20 18:14 41.164338 165.206721 255 36312ft 436kts
05-Apr-20 18:15 41.102658 164.896684 255 36301ft 435kts
05-Apr-20 18:16 41.039874 164.586237 254 36302ft 435kts
05-Apr-20 18:17 40.976628 164.278015 254 36299ft 434kts
05-Apr-20 18:18 40.912547 163.970294 254 36297ft 432kts
05-Apr-20 18:19 40.848087 163.665222 254 36294ft 431kts
05-Apr-20 18:20 40.782882 163.361014 254 36290ft 430kts
05-Apr-20 18:21 40.717100 163.058497 254 36288ft 428kts
05-Apr-20 18:22 40.650562 162.756573 254 36285ft 427kts
05-Apr-20 18:23 40.583722 162.457471 253 36281ft 424kts
05-Apr-20 18:24 40.516659 162.161382 253 36278ft 422kts
05-Apr-20 18:25 40.448850 161.865877 253 36272ft 420kts
05-Apr-20 18:26 40.380752 161.572970 253 36268ft 420kts
05-Apr-20 18:27 40.311807 161.280211 252 36265ft 421kts
05-Apr-20 18:27 40.253664 161.036147 252 36262ft 420kts
05-Apr-20 18:29 40.171928 160.697330 252 36257ft 418kts
05-Apr-20 18:30 40.101419 160.408904 251 36253ft 415kts
05-Apr-20 18:30 40.042551 160.169868 251 36250ft 413kts
05-Apr-20 18:31 39.989432 159.879781 264 36246ft 415kts
05-Apr-20 18:33 39.979822 159.528143 264 36243ft 415kts
05-Apr-20 18:33 39.969744 159.279425 263 36240ft 412kts
05-Apr-20 18:34 39.956008 158.981466 263 36236ft 411kts
05-Apr-20 18:35 39.941471 158.683739 262 36232ft 412kts
05-Apr-20 18:36 39.926070 158.384060 262 36215ft 416kts
05-Apr-20 18:37 39.909752 158.082077 262 36002ft 418kts
05-Apr-20 18:38 39.892637 157.780236 262 35964ft 418kts
05-Apr-20 18:39 39.874803 157.479356 262 35957ft 415kts
05-Apr-20 18:40 39.856353 157.181195 261 35951ft 412kts
05-Apr-20 18:41 39.837239 156.884680 261 35946ft 410kts
05-Apr-20 18:42 39.817417 156.589015 261 35940ft 411kts
05-Apr-20 18:43 39.796710 156.291618 260 35934ft 413kts
05-Apr-20 18:44 39.775221 155.994150 260 35929ft 414kts
05-Apr-20 18:45 39.752915 155.696106 260 35923ft 413kts
05-Apr-20 18:46 39.729949 155.399452 260 35917ft 411kts
05-Apr-20 18:47 39.706455 155.105835 259 35912ft 409kts
05-Apr-20 18:48 39.682208 154.812248 259 35906ft 407kts
05-Apr-20 18:49 39.657259 154.519262 259 35901ft 408kts
05-Apr-20 18:50 39.631560 154.226405 259 35895ft 410kts
05-Apr-20 18:51 39.604931 153.931588 258 35890ft 411kts
05-Apr-20 18:52 39.577629 153.637787 258 35885ft 411kts
05-Apr-20 18:53 39.549525 153.343551 258 35879ft 410kts
05-Apr-20 18:54 39.520757 153.050346 258 35875ft 410kts
05-Apr-20 18:55 39.491341 152.758221 257 35870ft 411kts
05-Apr-20 18:56 39.460961 152.464136 257 35865ft 413kts
05-Apr-20 18:57 39.429686 152.168857 257 35861ft 414kts
05-Apr-20 18:58 39.397645 151.873652 257 35856ft 415kts
05-Apr-20 18:59 39.364760 151.577860 256 35853ft 415kts
05-Apr-20 19:00 39.331260 151.283486 256 35848ft 414kts
05-Apr-20 19:01 39.311559 151.113413 256 35846ft 414kts
05-Apr-20 19:02 39.294339 150.966711 256 35844ft 413kts
05-Apr-20 19:03 39.276945 150.820034 256 35845ft 414kts
05-Apr-20 19:04 39.259292 150.672845 256 35840ft 415kts
05-Apr-20 19:05 39.241449 150.525663 256 35839ft 415kts
05-Apr-20 19:06 39.223403 150.378409 256 35837ft 415kts
05-Apr-20 19:07 39.205263 150.231583 256 35836ft 415kts
05-Apr-20 19:08 39.187151 150.084481 256 35835ft 415kts
05-Apr-20 19:09 39.168294 149.937264 255 35834ft 418kts
05-Apr-20 19:10 39.139179 149.793610 241 35832ft 413kts
05-Apr-20 19:11 39.083447 149.665789 238 35833ft 409kts
05-Apr-20 19:12 39.026208 149.538577 239 35833ft 410kts
05-Apr-20 19:13 38.969589 149.411818 239 35833ft 409kts
05-Apr-20 19:14 38.913308 149.284843 239 35819ft 409kts
05-Apr-20 19:15 38.856531 149.158159 239 35819ft 409kts
05-Apr-20 19:16 38.799534 149.031689 239 35820ft 409kts
05-Apr-20 19:17 38.742478 148.905615 239 35821ft 409kts
05-Apr-20 19:18 38.685163 148.779496 239 35822ft 408kts
05-Apr-20 19:19 38.627929 148.654052 239 35823ft 408kts
05-Apr-20 19:20 38.570529 148.528732 239 35825ft 408kts
05-Apr-20 19:21 38.513095 148.403823 239 35830ft 407kts
05-Apr-20 19:22 38.455521 148.279089 239 35827ft 406kts
05-Apr-20 19:23 38.397959 148.154900 239 35829ft 405kts
05-Apr-20 19:24 38.340487 148.031361 239 35830ft 405kts
05-Apr-20 19:25 38.283055 147.908381 239 35841ft 405kts
05-Apr-20 19:26 38.225260 147.785077 238 35845ft 405kts
05-Apr-20 19:27 38.167257 147.661833 238 35846ft 406kts
05-Apr-20 19:28 38.108969 147.538443 238 35848ft 407kts
05-Apr-20 19:29 38.050436 147.415004 238 35851ft 409kts
05-Apr-20 19:30 37.991596 147.291395 238 35858ft 408kts
05-Apr-20 19:31 37.933333 147.169443 239 35860ft 403kts
05-Apr-20 19:32 37.874892 147.047579 238 35859ft 405kts
05-Apr-20 19:33 37.816191 146.925638 238 35861ft 405kts
05-Apr-20 19:34 37.757240 146.803622 239 35864ft 407kts
05-Apr-20 19:35 37.698205 146.681885 238 35976ft 408kts
05-Apr-20 19:36 37.638454 146.559147 238 35979ft 410kts
05-Apr-20 19:37 37.578522 146.436459 238 35977ft 410kts
05-Apr-20 19:38 37.518348 146.313780 238 35977ft 412kts
05-Apr-20 19:39 37.457946 146.191071 238 35976ft 412kts
05-Apr-20 19:40 37.397506 146.068732 238 35976ft 411kts
05-Apr-20 19:41 37.337443 145.946891 238 35975ft 412kts
05-Apr-20 19:42 37.276367 145.824432 238 35974ft 412kts
05-Apr-20 19:43 37.215568 145.703074 238 35974ft 410kts
05-Apr-20 19:44 37.168498 145.573489 249 35973ft 410kts
05-Apr-20 19:45 37.129388 145.439428 248 35967ft 409kts
05-Apr-20 19:46 37.089504 145.306062 248 35971ft 409kts
05-Apr-20 19:47 37.049970 145.172590 248 35971ft 409kts
05-Apr-20 19:48 37.009933 145.038925 248 35970ft 409kts
05-Apr-20 19:49 36.969743 144.905888 248 35928ft 409kts
05-Apr-20 19:50 36.929395 144.772983 248 35925ft 409kts
05-Apr-20 19:51 36.889362 144.639825 251 35926ft 408kts
05-Apr-20 19:52 36.848486 144.507628 248 35929ft 408kts
05-Apr-20 19:53 36.807611 144.375562 248 35931ft 407kts
05-Apr-20 19:54 36.766697 144.244066 248 35933ft 406kts
05-Apr-20 19:55 36.726223 144.113092 248 35931ft 405kts
05-Apr-20 19:56 36.685098 143.982374 248 35931ft 405kts
05-Apr-20 19:57 36.643788 143.851480 250 35935ft 406kts
05-Apr-20 19:58 36.602419 143.720934 250 35938ft 406kts
05-Apr-20 19:59 36.560581 143.590161 249 35940ft 406kts
05-Apr-20 20:00 36.518593 143.459781 248 35942ft 407kts
05-Apr-20 20:01 36.477022 143.328742 248 35945ft 407kts
05-Apr-20 20:02 36.435007 143.197855 248 35946ft 408kts
05-Apr-20 20:03 36.392607 143.066722 248 35946ft 409kts
05-Apr-20 20:04 36.350138 142.936008 248 35971ft 409kts
05-Apr-20 20:05 36.307251 142.804602 248 35975ft 411kts
05-Apr-20 20:06 36.264499 142.673148 248 35977ft 411kts
05-Apr-20 20:07 36.221152 142.542118 248 35979ft 410kts
05-Apr-20 20:08 36.177856 142.411607 248 35980ft 410kts
05-Apr-20 20:09 36.131358 142.282552 247 35983ft 410kts
05-Apr-20 20:10 36.084792 142.154208 248 35985ft 409kts
05-Apr-20 20:11 36.038718 142.025740 247 35986ft 409kts
05-Apr-20 20:12 35.992452 141.897643 247 35987ft 409kts
05-Apr-20 20:13 35.946365 141.769433 250 35988ft 408kts
05-Apr-20 20:14 35.914743 141.634898 257 35989ft 407kts
05-Apr-20 20:15 35.884938 141.500498 255 35991ft 407kts
05-Apr-20 20:16 35.854543 141.365697 256 35990ft 407kts
05-Apr-20 20:17 35.824717 141.231205 256 35992ft 406kts
05-Apr-20 20:18 35.794587 141.096682 256 35993ft 407kts
05-Apr-20 20:19 35.763672 140.962291 255 35985ft 407kts
05-Apr-20 20:20 35.737362 140.848266 255 35992ft 408kts
05-Apr-20 20:21 35.733189 140.709229 274 35992ft 410kts
05-Apr-20 20:22 35.745728 140.585266 274 35993ft 411kts
05-Apr-20 20:24 35.758416 140.445043 276 35986ft 411kts
05-Apr-20 20:25 35.770604 140.305057 277 35993ft 411kts
05-Apr-20 20:26 35.795189 140.167054 282 35990ft 415kts
05-Apr-20 20:27 35.825467 140.029973 281 35989ft 415kts
05-Apr-20 20:28 35.851631 139.908264 281 35990ft 415kts
05-Apr-20 20:29 35.881182 139.771131 282 35993ft 414kts
05-Apr-20 20:30 35.910479 139.633492 281 35994ft 414kts
05-Apr-20 20:31 35.931243 139.493807 276 36416ft 413kts
05-Apr-20 20:32 35.947803 139.353403 278 36978ft 415kts
05-Apr-20 20:33 35.965116 139.212887 277 37541ft 415kts
05-Apr-20 20:34 35.982005 139.071552 277 37925ft 416kts
05-Apr-20 20:35 35.998514 138.929985 276 38042ft 416kts
05-Apr-20 20:36 36.005883 138.786261 270 38035ft 422kts
05-Apr-20 20:37 36.006483 138.641702 270 38027ft 420kts
05-Apr-20 20:38 36.007504 138.497517 270 38018ft 420kts
05-Apr-20 20:39 36.009137 138.353484 270 38010ft 419kts
05-Apr-20 20:40 36.010316 138.209550 270 38003ft 418kts
05-Apr-20 20:40 36.011079 138.089665 270 37994ft 418kts
05-Apr-20 20:42 36.011906 137.922164 270 37996ft 418kts
05-Apr-20 20:43 36.012795 137.778142 270 38005ft 418kts
05-Apr-20 20:43 36.012938 137.658516 270 38014ft 420kts
05-Apr-20 20:45 36.013007 137.490317 270 38038ft 421kts
05-Apr-20 20:46 36.012817 137.345385 271 38060ft 422kts
05-Apr-20 20:46 36.012377 137.224464 270 38076ft 423kts
05-Apr-20 20:48 36.011568 137.054784 270 38167ft 424kts
05-Apr-20 20:48 36.011644 136.933305 270 38173ft 425kts
05-Apr-20 20:49 36.011065 136.787209 270 38176ft 425kts
05-Apr-20 20:50 36.010187 136.641083 270 38183ft 425kts
05-Apr-20 20:51 36.009114 136.494871 269 38186ft 425kts
05-Apr-20 20:52 36.007874 136.349269 269 38186ft 425kts
05-Apr-20 20:53 36.006432 136.203544 269 38188ft 425kts
05-Apr-20 20:54 36.004826 136.057706 269 38185ft 424kts
05-Apr-20 20:55 36.003037 135.911586 269 38182ft 424kts
05-Apr-20 20:56 36.001084 135.766137 269 38178ft 424kts
05-Apr-20 20:57 35.998942 135.620010 269 38176ft 424kts
05-Apr-20 20:58 35.996640 135.474810 269 38182ft 423kts
05-Apr-20 20:59 35.994176 135.329685 269 38178ft 423kts
05-Apr-20 21:00 35.991509 135.184179 269 38177ft 423kts
05-Apr-20 21:01 35.989029 135.039705 269 38175ft 421kts
05-Apr-20 21:02 35.985851 134.894883 269 38171ft 421kts
05-Apr-20 21:03 35.982557 134.750445 269 38188ft 421kts
05-Apr-20 21:04 35.979122 134.605649 269 38195ft 421kts
05-Apr-20 21:05 35.975504 134.461337 270 38201ft 421kts
05-Apr-20 21:06 35.972087 134.316881 271 38206ft 422kts
05-Apr-20 21:07 35.968737 134.171555 270 38211ft 422kts
05-Apr-20 21:08 35.964565 134.026967 270 38228ft 422kts
05-Apr-20 21:09 35.960251 133.881744 269 38228ft 422kts
05-Apr-20 21:10 35.955565 133.737044 269 38228ft 422kts
05-Apr-20 21:11 35.950629 133.592261 269 38228ft 422kts
05-Apr-20 21:12 35.946047 133.447506 269 38228ft 422kts
05-Apr-20 21:13 35.941428 133.303068 269 38228ft 421kts
05-Apr-20 21:14 35.936365 133.158641 268 38200ft 419kts
05-Apr-20 21:15 35.931111 133.014919 268 38199ft 419kts
05-Apr-20 21:16 35.925678 132.871043 268 38200ft 420kts
05-Apr-20 21:17 35.920063 132.727295 268 38200ft 420kts
05-Apr-20 21:18 35.914273 132.583337 268 38200ft 419kts
05-Apr-20 21:19 35.908343 132.440141 268 38200ft 418kts
05-Apr-20 21:20 35.902221 132.296465 268 38200ft 420kts
05-Apr-20 21:21 35.895915 132.152508 268 38200ft 419kts
05-Apr-20 21:22 35.889454 132.008941 268 38200ft 419kts
05-Apr-20 21:23 35.882806 131.865034 268 38200ft 419kts
05-Apr-20 21:24 35.875994 131.721325 268 38188ft 419kts
05-Apr-20 21:25 35.869042 131.578159 268 38185ft 419kts
05-Apr-20 21:26 35.861882 131.434435 268 38184ft 419kts
05-Apr-20 21:27 35.854571 131.291004 267 38182ft 419kts
05-Apr-20 21:28 35.847089 131.147632 267 38184ft 419kts
05-Apr-20 21:29 35.839764 131.004059 267 38181ft 419kts
05-Apr-20 21:30 35.831742 130.860714 267 38175ft 419kts
05-Apr-20 21:31 35.825762 130.717204 274 38173ft 419kts
05-Apr-20 21:32 35.842376 130.575212 278 38168ft 419kts
05-Apr-20 21:33 35.860536 130.432921 278 38165ft 419kts
05-Apr-20 21:34 35.878218 130.291213 278 38161ft 419kts
05-Apr-20 21:35 35.896563 130.149251 278 38157ft 419kts
05-Apr-20 21:36 35.913957 130.006559 278 38157ft 419kts
05-Apr-20 21:37 35.931029 129.864449 278 38155ft 419kts
05-Apr-20 21:38 35.948263 129.722012 277 38149ft 419kts
05-Apr-20 21:39 35.964854 129.579735 277 38145ft 420kts
05-Apr-20 21:40 35.997327 129.442125 297 38141ft 424kts
05-Apr-20 21:41 36.065061 129.321459 301 38142ft 430kts
05-Apr-20 21:42 36.134563 129.200888 301 38152ft 430kts
05-Apr-20 21:43 36.204458 129.080113 301 38161ft 432kts
05-Apr-20 21:44 36.273726 128.958463 301 38169ft 432kts
05-Apr-20 21:45 36.343074 128.836308 301 38171ft 433kts
05-Apr-20 21:46 36.412975 128.714781 301 38169ft 434kts
05-Apr-20 21:47 36.482978 128.592312 301 38166ft 433kts
05-Apr-20 21:48 36.543954 128.485435 301 38168ft 434kts
05-Apr-20 21:49 36.593511 128.399381 301 38159ft 434kts
05-Apr-20 21:50 36.663207 128.276032 295 38107ft 431kts
05-Apr-20 21:51 36.729974 128.152506 303 35526ft 431kts
05-Apr-20 21:52 36.799013 128.031855 301 32374ft 430kts
05-Apr-20 21:53 36.869934 127.906544 302 27742ft 454kts
05-Apr-20 21:54 36.942180 127.778164 303 23261ft 442kts
05-Apr-20 21:55 37.010158 127.654144 295 19345ft 424kts
05-Apr-20 21:56 37.041527 127.515286 282 15715ft 411kts
05-Apr-20 21:57 37.064281 127.377512 282 13365ft 399kts
05-Apr-20 21:58 37.086417 127.243393 282 11972ft 384kts
05-Apr-20 21:59 37.105806 127.125835 283 11404ft 306kts
05-Apr-20 22:00 37.121752 127.031217 283 10508ft 263kts
05-Apr-20 22:01 37.136137 126.943035 284 9980ft 240kts
05-Apr-20 22:02 37.149025 126.863075 284 8965ft 233kts
05-Apr-20 22:03 37.161809 126.784504 285 7870ft 229kts
05-Apr-20 22:04 37.191610 126.715847 312 7057ft 209kts
05-Apr-20 22:05 37.231211 126.666106 320 5639ft 194kts
05-Apr-20 22:06 37.273438 126.627042 324 4214ft 180kts
05-Apr-20 22:07 37.312334 126.592642 323 3434ft 169kts
05-Apr-20 22:08 37.352688 126.556641 324 2619ft 174kts
05-Apr-20 22:09 37.390332 126.523383 323 1591ft 158kts
05-Apr-20 22:10 37.426222 126.491550 323 790ft 158kts
05-Apr-20 22:11 37.460770 126.460810 323 37ft 136kts
05-Apr-20 22:12 37.477054 126.447016 353 36ft 23kts
05-Apr-20 22:13 37.478826 126.447768 132 36ft 10kts
05-Apr-20 22:14 37.475884 126.450403 145 36ft 14kts
05-Apr-20 22:15 37.472111 126.453823 144 36ft 13kts
05-Apr-20 22:16 37.467362 126.458011 143 36ft 14kts
05-Apr-20 22:17 37.463933 126.461079 143 36ft 11kts
05-Apr-20 22:18 37.464984 126.464484 51 36ft 13kts
05-Apr-20 22:19 37.466118 126.467322 134 36ft 8kts
05-Apr-20 22:20 37.465669 126.467777 146 36ft 0kts
05-Apr-20 22:21 37.465669 126.467777 146 36ft 0kts
05-Apr-20 22:22 37.465669 126.467777 146 36ft 0kts

Navigation Log

Ident Type
Flight plan parsing failed, navigation log unavailable